Archers Lodge, North Carolina
Current Conditions -  °F | °C
As of 5:35 AM on Monday 22 Dec 2014 (Local Time) from KJNX Reporting Station
Moderate Rain Moderate Rain  
Wind Chill:   Ceiling: 600
Heat Index:   Visibility: 3mi
Dew Point:   Wind: 8mph
Humidity: 100%   Direction: 20°NNE
Pressure: 30.12"   Gusts: NA
Location:  35.6101°N, 78.4715°W
Report Text: KJNX 221035Z AUTO 02007KT 3SM RA OVC006 03/03 A3012 RMK AO2 P0012
Loading
Personal Weather Stations






























Interactive Weather Map New forecast layout! Learn more

10-Day Weather Forecast

Advertisements
Track Severe Weather on mobile